createdAt,value
2023-04-01T00:00:35.522Z,15
2023-04-01T00:03:38.873Z,15.7
2023-04-01T00:06:26.894Z,16.8
2023-04-01T00:09:14.618Z,16.1
2023-04-01T00:12:02.411Z,15
2023-04-01T00:14:50.616Z,15
2023-04-01T00:17:38.218Z,15.9
2023-04-01T00:20:26.083Z,16.9
2023-04-01T00:23:14.375Z,16.3
2023-04-01T00:26:03.525Z,15.1
2023-04-01T00:28:51.442Z,14.7
2023-04-01T00:31:39.018Z,15.8
2023-04-01T00:34:26.627Z,16.6
2023-04-01T00:37:14.254Z,16.4
2023-04-01T00:40:02.088Z,15.2
2023-04-01T00:42:52.591Z,15.1
2023-04-01T00:45:42.583Z,16.1
2023-04-01T00:48:31.806Z,16.9
2023-04-01T00:51:22.295Z,16.1
2023-04-01T00:54:13.750Z,15
2023-04-01T00:57:05.647Z,15.4
2023-04-01T00:59:56.320Z,16.5
2023-04-01T01:02:45.589Z,17.1
2023-04-01T01:05:46.320Z,16.2
2023-04-01T01:08:54.826Z,14.7
2023-04-01T01:11:56.630Z,15.1
2023-04-01T01:14:53.649Z,16.3
2023-04-01T01:17:54.939Z,17.1
2023-04-01T01:20:49.367Z,16.2
2023-04-01T01:24:29.366Z,14.7
2023-04-01T01:27:37.518Z,15.3
2023-04-01T01:30:31.984Z,16.3
2023-04-01T01:33:25.107Z,16.8
2023-04-01T01:36:25.954Z,15.5
2023-04-01T01:39:17.180Z,14.5
2023-04-01T01:42:12.234Z,15.1
2023-04-01T01:45:03.561Z,16.2
2023-04-01T01:47:54.814Z,16.8
2023-04-01T01:50:46.061Z,16.2
2023-04-01T01:53:35.056Z,15.1
2023-04-01T01:56:24.036Z,15
2023-04-01T01:59:15.289Z,16.1
2023-04-01T02:02:06.640Z,16.7
2023-04-01T02:04:56.842Z,16.3
2023-04-01T02:07:46.029Z,15.1
2023-04-01T02:10:42.980Z,15.2
2023-04-01T02:13:39.910Z,16.1
2023-04-01T02:16:34.236Z,17.1
2023-04-01T02:19:26.610Z,16.2
2023-04-01T02:22:20.810Z,14.9
2023-04-01T02:25:12.237Z,15
2023-04-01T02:28:03.477Z,15.8
2023-04-01T02:30:53.918Z,16.9
2023-04-01T02:33:44.296Z,16.5
2023-04-01T02:36:33.400Z,15.1
2023-04-01T02:39:22.367Z,15
2023-04-01T02:42:11.789Z,15.8
2023-04-01T02:45:00.737Z,16.8
2023-04-01T02:47:50.093Z,16.5
2023-04-01T02:50:37.663Z,15.1
2023-04-01T02:53:25.287Z,14.9
2023-04-01T02:56:12.887Z,15.8
2023-04-01T02:59:00.533Z,16.4
2023-04-01T03:01:48.741Z,16.3
2023-04-01T03:04:36.192Z,15.2
2023-04-01T03:07:23.926Z,14.4
2023-04-01T03:10:11.465Z,15.3
2023-04-01T03:12:59.485Z,16.5
2023-04-01T03:15:47.147Z,16.8
2023-04-01T03:18:34.849Z,15.7
2023-04-01T03:21:22.385Z,14.7
2023-04-01T03:24:10.704Z,15.5
2023-04-01T03:26:58.609Z,16.3
2023-04-01T03:29:46.706Z,16.7
2023-04-01T03:32:34.640Z,15.7
2023-04-01T03:35:22.316Z,14.5
2023-04-01T03:38:10.357Z,15
2023-04-01T03:40:58.352Z,16.1
2023-04-01T03:43:46.527Z,16.8
2023-04-01T03:46:34.098Z,16.1
2023-04-01T03:49:21.824Z,14.9
2023-04-01T03:52:09.296Z,15.1
2023-04-01T03:54:57.750Z,16.2
2023-04-01T03:57:46.995Z,17
2023-04-01T04:00:34.474Z,16.1
2023-04-01T04:03:22.650Z,14.7
2023-04-01T04:06:10.354Z,14.7
2023-04-01T04:08:59.111Z,15.8
2023-04-01T04:11:47.143Z,16.9
2023-04-01T04:14:35.063Z,16.1
2023-04-01T04:17:22.652Z,14.8
2023-04-01T04:20:10.547Z,14.7
2023-04-01T04:22:58.437Z,15.9
2023-04-01T04:25:47.415Z,16.8
2023-04-01T04:28:45.779Z,15.8
2023-04-01T04:31:33.955Z,14.5
2023-04-01T04:34:21.600Z,14.4
2023-04-01T04:37:09.219Z,15.6
2023-04-01T04:39:56.938Z,16.7
2023-04-01T04:42:45.564Z,16.1
2023-04-01T04:45:33.414Z,14.8
2023-04-01T04:48:21.735Z,14.5
2023-04-01T04:51:09.339Z,15.6
2023-04-01T04:54:01.128Z,16.6
2023-04-01T04:56:49.054Z,15.7
2023-04-01T04:59:37.684Z,14.6
2023-04-01T05:02:25.297Z,14.6
2023-04-01T05:05:12.996Z,15.5
2023-04-01T05:08:00.673Z,16.6
2023-04-01T05:10:48.487Z,15.8
2023-04-01T05:13:35.991Z,14.7
2023-04-01T05:16:23.618Z,14.6
2023-04-01T05:19:11.251Z,15.7
2023-04-01T05:21:58.937Z,16.2
2023-04-01T05:24:46.634Z,16.5
2023-04-01T05:27:34.555Z,15.3
2023-04-01T05:30:22.140Z,14.4
2023-04-01T05:33:09.755Z,14.9
2023-04-01T05:35:59.045Z,15.6
2023-04-01T05:38:53.668Z,16.7
2023-04-01T05:41:42.608Z,16
2023-04-01T05:44:30.590Z,14.6
2023-04-01T05:47:18.298Z,14.7
2023-04-01T05:50:06.134Z,15.6
2023-04-01T05:52:54.956Z,16.5
2023-04-01T05:55:43.734Z,16.1
2023-04-01T05:58:31.259Z,15.1
2023-04-01T06:01:18.987Z,14.8
2023-04-01T06:04:06.994Z,15.7
2023-04-01T06:07:00.532Z,16.7
2023-04-01T06:09:57.141Z,16.4
2023-04-01T06:12:46.739Z,15
2023-04-01T06:15:46.785Z,15
2023-04-01T06:18:40.018Z,15.6
2023-04-01T06:21:40.779Z,16.7
2023-04-01T06:24:45.194Z,15.9
2023-04-01T06:27:45.444Z,14.5
2023-04-01T06:30:47.173Z,14.8
2023-04-01T06:33:43.970Z,16.2
2023-04-01T06:36:45.569Z,17
2023-04-01T06:39:50.751Z,16.4
2023-04-01T06:43:19.486Z,15.1
2023-04-01T06:46:19.325Z,15.2
2023-04-01T06:49:17.089Z,16.5
2023-04-01T06:52:19.636Z,17.2
2023-04-01T06:55:13.624Z,16.6
2023-04-01T06:58:12.748Z,15.3
2023-04-01T07:01:07.884Z,15.3
2023-04-01T07:04:00.698Z,16.4
2023-04-01T07:06:52.911Z,17.4
2023-04-01T07:09:45.136Z,16.9
2023-04-01T07:12:37.625Z,15.5
2023-04-01T07:15:33.241Z,15.5
2023-04-01T07:18:25.313Z,16.6
2023-04-01T07:21:20.629Z,17.5
2023-04-01T07:24:15.329Z,16.9
2023-04-01T07:27:09.805Z,15.6
2023-04-01T07:29:59.960Z,15.9
2023-04-01T07:32:50.462Z,17
2023-04-01T07:35:46.136Z,17.6
2023-04-01T07:38:45.772Z,16.4
2023-04-01T07:41:45.762Z,15.3
2023-04-01T07:44:39.837Z,16.2
2023-04-01T07:47:36.207Z,17.2
2023-04-01T07:50:42.346Z,17.5
2023-04-01T07:53:47.734Z,16.3
2023-04-01T07:56:48.047Z,15.9
2023-04-01T07:59:41.908Z,17.1
2023-04-01T08:02:39.538Z,17.7
2023-04-01T08:05:45.682Z,16.4
2023-04-01T08:08:41.232Z,15.4
2023-04-01T08:11:43.975Z,16.3
2023-04-01T08:14:43.862Z,17.4
2023-04-01T08:17:42.520Z,17.1
2023-04-01T08:20:40.256Z,15.8
2023-04-01T08:23:34.236Z,15.7
2023-04-01T08:26:30.430Z,16.8
2023-04-01T08:29:25.783Z,17.5
2023-04-01T08:32:23.352Z,16.5
2023-04-01T08:35:16.302Z,15.4
2023-04-01T08:38:12.723Z,16
2023-04-01T08:41:06.629Z,17.1
2023-04-01T08:44:14.898Z,17.3
2023-04-01T08:47:19.683Z,16
2023-04-01T08:50:53.879Z,15.9
2023-04-01T08:53:58.327Z,17.2
2023-04-01T08:57:07.597Z,17.4
2023-04-01T09:00:01.563Z,16.2
2023-04-01T09:03:06.383Z,15.3
2023-04-01T09:06:21.653Z,16.2
2023-04-01T09:09:18.590Z,17.4
2023-04-01T09:12:50.161Z,16.7
2023-04-01T09:15:53.280Z,15.4
2023-04-01T09:18:59.326Z,15.7
2023-04-01T09:22:03.416Z,17
2023-04-01T09:25:07.407Z,17.5
2023-04-01T09:28:15.996Z,16.2
2023-04-01T09:31:06.281Z,15.3
2023-04-01T09:34:06.611Z,16.1
2023-04-01T09:37:11.716Z,17.4
2023-04-01T09:40:07.300Z,17.1
2023-04-01T09:43:03.724Z,15.8
2023-04-01T09:46:07.866Z,15.2
2023-04-01T09:49:04.912Z,16.4
2023-04-01T09:52:20.880Z,17.5
2023-04-01T09:55:21.338Z,16.9
2023-04-01T09:58:49.010Z,15.4
2023-04-01T10:01:54.307Z,15.7
2023-04-01T10:05:09.229Z,16.6
2023-04-01T10:08:26.567Z,16.8
2023-04-01T10:11:37.567Z,15.5
2023-04-01T10:15:10.732Z,15.2
2023-04-01T10:19:40.189Z,16.5
2023-04-01T10:22:46.081Z,16.5
2023-04-01T10:26:07.456Z,15.2
2023-04-01T10:29:35.183Z,15.3
2023-04-01T10:32:43.636Z,16.5
2023-04-01T10:36:18.975Z,17
2023-04-01T10:39:28.252Z,15.9
2023-04-01T10:42:23.583Z,15
2023-04-01T10:45:59.814Z,16
2023-04-01T10:50:25.346Z,17.3
2023-04-01T10:53:55.388Z,16.2
2023-04-01T10:57:02.340Z,15.4
2023-04-01T11:00:09.648Z,16.7
2023-04-01T11:03:48.977Z,17.5
2023-04-01T11:07:39.519Z,16.1
2023-04-01T11:10:52.204Z,15.1
2023-04-01T11:14:04.068Z,16
2023-04-01T11:18:14.053Z,17
2023-04-01T11:21:27.695Z,15.9
2023-04-01T11:24:39.144Z,15.1
2023-04-01T11:27:57.965Z,16.4
2023-04-01T11:31:11.089Z,17.2
2023-04-01T11:34:16.375Z,16
2023-04-01T11:37:23.778Z,14.7
2023-04-01T11:40:23.263Z,15.2
2023-04-01T11:43:32.432Z,16.4
2023-04-01T11:46:29.402Z,16.2
2023-04-01T11:49:28.865Z,14.9
2023-04-01T11:52:30.559Z,15
2023-04-01T11:55:39.432Z,16.1
2023-04-01T11:58:39.798Z,15.9
2023-04-01T12:01:45.711Z,14.6
2023-04-01T12:04:46.067Z,14.6
2023-04-01T12:07:48.679Z,15.8
2023-04-01T12:10:51.483Z,16.3
2023-04-01T12:13:51.700Z,15.1
2023-04-01T12:16:55.495Z,14.2
2023-04-01T12:19:56.615Z,15.3
2023-04-01T12:23:04.669Z,16.4
2023-04-01T12:26:08.572Z,15.7
2023-04-01T12:29:17.128Z,14.4
2023-04-01T12:32:26.333Z,14.8
2023-04-01T12:35:28.463Z,16.2
2023-04-01T12:38:28.823Z,16.8
2023-04-01T12:41:33.337Z,15.8
2023-04-01T12:44:34.056Z,14.6
2023-04-01T12:47:39.326Z,15.3
2023-04-01T12:50:46.247Z,16.4
2023-04-01T12:53:56.848Z,15.7
2023-04-01T12:57:04.756Z,14.5
2023-04-01T13:00:14.259Z,14.3
2023-04-01T13:03:29.234Z,15.6
2023-04-01T13:06:36.741Z,15.8
2023-04-01T13:09:39.433Z,14.5
2023-04-01T13:12:37.261Z,14
2023-04-01T13:16:05.153Z,15.2
2023-04-01T13:18:57.858Z,15.6
2023-04-01T13:21:52.566Z,14.5
2023-04-01T13:24:49.738Z,13.5
2023-04-01T13:27:44.549Z,14.5
2023-04-01T13:30:37.426Z,15.7
2023-04-01T13:33:33.781Z,15.3
2023-04-01T13:36:31.136Z,14.2
2023-04-01T13:39:29.349Z,13.7
2023-04-01T13:42:31.189Z,15.1
2023-04-01T13:45:24.223Z,16.2
2023-04-01T13:48:21.573Z,15.3
2023-04-01T13:51:26.737Z,14.3
2023-04-01T13:54:31.928Z,14.7
2023-04-01T13:57:46.506Z,16.5
2023-04-01T14:00:50.927Z,16.3
2023-04-01T14:03:50.702Z,15.2
2023-04-01T14:07:16.535Z,14.1
2023-04-01T14:10:17.400Z,15.2
2023-04-01T14:13:11.581Z,16
2023-04-01T14:16:10.043Z,15.2
2023-04-01T14:19:14.389Z,14
2023-04-01T14:22:17.799Z,13.7
2023-04-01T14:25:14.319Z,15.1
2023-04-01T14:28:16.198Z,15.6
2023-04-01T14:31:17.254Z,14.4
2023-04-01T14:34:20.490Z,13.4
2023-04-01T14:37:24.310Z,14.3
2023-04-01T14:40:35.180Z,15.9
2023-04-01T14:43:40.709Z,15.3
2023-04-01T14:46:43.355Z,14.2
2023-04-01T14:50:03.727Z,13.2
2023-04-01T14:52:59.284Z,14
2023-04-01T14:56:02.999Z,15.3
2023-04-01T14:58:51.771Z,15.3
2023-04-01T15:01:48.389Z,14.2
2023-04-01T15:04:46.206Z,13.2
2023-04-01T15:07:42.299Z,13.6
2023-04-01T15:10:55.119Z,15.1
2023-04-01T15:14:29.758Z,14.8
2023-04-01T15:17:29.370Z,13.7
2023-04-01T15:20:49.263Z,13
2023-04-01T15:24:02.557Z,14.1
2023-04-01T15:26:58.516Z,15.2
2023-04-01T15:30:18.310Z,14.4
2023-04-01T15:33:16.692Z,13.3
2023-04-01T15:36:17.478Z,13.6
2023-04-01T15:39:17.001Z,15
2023-04-01T15:42:11.314Z,15
2023-04-01T15:45:12.735Z,14
2023-04-01T15:48:20.643Z,12.9
2023-04-01T15:51:21.451Z,13.3
2023-04-01T15:54:22.672Z,14.7
2023-04-01T15:57:31.698Z,14.5
2023-04-01T16:00:27.989Z,13.4
2023-04-01T16:03:18.819Z,12.7
2023-04-01T16:06:19.458Z,13.9
2023-04-01T16:09:24.151Z,14.7
2023-04-01T16:12:29.342Z,13.6
2023-04-01T16:15:32.629Z,12.6
2023-04-01T16:18:30.734Z,13
2023-04-01T16:21:30.158Z,14.4
2023-04-01T16:24:27.885Z,14.4
2023-04-01T16:27:21.927Z,13.2
2023-04-01T16:30:21.514Z,12.3
2023-04-01T16:33:20.880Z,13.4
2023-04-01T16:36:18.017Z,14.5
2023-04-01T16:39:14.940Z,13.8
2023-04-01T16:42:15.566Z,12.6
2023-04-01T16:45:16.935Z,12.7
2023-04-01T16:48:18.982Z,14
2023-04-01T16:51:14.201Z,13.8
2023-04-01T16:54:04.788Z,12.8
2023-04-01T16:57:02.126Z,12
2023-04-01T17:00:03.068Z,12.9
2023-04-01T17:03:08.664Z,14
2023-04-01T17:06:04.192Z,13.2
2023-04-01T17:09:06.239Z,12
2023-04-01T17:12:10.586Z,12.3
2023-04-01T17:15:12.258Z,13.6
2023-04-01T17:18:07.984Z,13.4
2023-04-01T17:21:05.691Z,12.4
2023-04-01T17:23:59.674Z,11.5
2023-04-01T17:26:59.694Z,12.3
2023-04-01T17:30:01.181Z,13.6
2023-04-01T17:32:59.555Z,12.9
2023-04-01T17:36:06.464Z,11.8
2023-04-01T17:39:07.342Z,11.1
2023-04-01T17:42:11.001Z,12.3
2023-04-01T17:45:03.605Z,13.3
2023-04-01T17:47:57.643Z,12.8
2023-04-01T17:50:56.635Z,11.8
2023-04-01T17:53:58.762Z,10.9
2023-04-01T17:57:01.689Z,11.9
2023-04-01T18:00:13.296Z,13
2023-04-01T18:03:10.086Z,12.3
2023-04-01T18:06:10.807Z,11.3
2023-04-01T18:09:03.175Z,11.1
2023-04-01T18:12:04.044Z,12.4
2023-04-01T18:15:04.054Z,12.4
2023-04-01T18:18:07.722Z,11.4
2023-04-01T18:21:11.332Z,10.6
2023-04-01T18:24:05.439Z,11.4
2023-04-01T18:27:04.583Z,12.6
2023-04-01T18:30:04.346Z,11.9
2023-04-01T18:33:01.587Z,10.9
2023-04-01T18:36:01.451Z,10.2
2023-04-01T18:39:01.743Z,11.5
2023-04-01T18:41:57.265Z,12.3
2023-04-01T18:44:55.361Z,11.5
2023-04-01T18:48:00.926Z,10.5
2023-04-01T18:51:01.541Z,10.2
2023-04-01T18:53:59.824Z,11.4
2023-04-01T18:56:55.213Z,12.4
2023-04-01T18:59:53.512Z,11.4
2023-04-01T19:02:50.639Z,10.4
2023-04-01T19:05:45.495Z,10.3
2023-04-01T19:08:36.905Z,11.7
2023-04-01T19:11:27.104Z,12.3
2023-04-01T19:14:35.156Z,11.3
2023-04-01T19:17:38.225Z,10.3
2023-04-01T19:20:38.011Z,10.2
2023-04-01T19:23:31.080Z,11.4
2023-04-01T19:26:48.394Z,12
2023-04-01T19:29:45.750Z,11.2
2023-04-01T19:32:52.536Z,10.1
2023-04-01T19:35:49.990Z,10.4
2023-04-01T19:38:49.819Z,11.7
2023-04-01T19:41:47.162Z,11.9
2023-04-01T19:44:41.515Z,10.8
2023-04-01T19:47:49.491Z,10
2023-04-01T19:50:49.541Z,11
2023-04-01T19:53:43.666Z,12.1
2023-04-01T19:56:39.899Z,11.5
2023-04-01T19:59:34.171Z,10.4
2023-04-01T20:02:29.539Z,10.4
2023-04-01T20:05:29.881Z,11.7
2023-04-01T20:08:29.716Z,11.8
2023-04-01T20:11:26.796Z,10.7
2023-04-01T20:14:27.420Z,9.6
2023-04-01T20:17:23.591Z,10.4
2023-04-01T20:20:17.965Z,11.5
2023-04-01T20:23:07.899Z,11.1
2023-04-01T20:26:17.475Z,10
2023-04-01T20:29:10.900Z,9.3
2023-04-01T20:32:33.370Z,10.5
2023-04-01T20:35:34.167Z,11.9
2023-04-01T20:38:30.767Z,11.3
2023-04-01T20:41:48.800Z,10.1
2023-04-01T20:44:51.522Z,9.4
2023-04-01T20:47:48.897Z,10.5
2023-04-01T20:50:57.982Z,11.3
2023-04-01T20:53:52.634Z,10.3
2023-04-01T20:56:57.534Z,9.2
2023-04-01T20:59:52.752Z,9.7
2023-04-01T21:02:57.805Z,10.9
2023-04-01T21:06:02.008Z,10.9
2023-04-01T21:09:01.930Z,9.9
2023-04-01T21:12:03.389Z,9.1
2023-04-01T21:15:00.945Z,9.9
2023-04-01T21:18:08.310Z,11.5
2023-04-01T21:21:22.118Z,11.2
2023-04-01T21:24:26.949Z,10.1
2023-04-01T21:27:31.479Z,9.1
2023-04-01T21:30:30.070Z,9.3
2023-04-01T21:33:30.135Z,10.8
2023-04-01T21:36:57.470Z,10.6
2023-04-01T21:40:02.926Z,9.6
2023-04-01T21:43:30.043Z,8.7
2023-04-01T21:47:07.821Z,10
2023-04-01T21:50:32.211Z,10.9
2023-04-01T21:53:33.511Z,10
2023-04-01T21:57:03.680Z,8.8
2023-04-01T22:00:19.586Z,8.9
2023-04-01T22:03:19.664Z,10.1
2023-04-01T22:06:57.018Z,9.9
2023-04-01T22:09:53.584Z,9
2023-04-01T22:12:49.617Z,8.5
2023-04-01T22:15:46.245Z,9.7
2023-04-01T22:18:47.394Z,10.6
2023-04-01T22:21:45.247Z,9.8
2023-04-01T22:24:46.904Z,8.8
2023-04-01T22:27:46.307Z,8.2
2023-04-01T22:30:39.500Z,9.2
2023-04-01T22:33:33.580Z,10.4
2023-04-01T22:36:30.824Z,10.1
2023-04-01T22:39:30.283Z,9
2023-04-01T22:42:36.854Z,8.2
2023-04-01T22:45:29.600Z,8.9
2023-04-01T22:48:34.992Z,10.3
2023-04-01T22:51:27.354Z,9.9
2023-04-01T22:54:27.455Z,9
2023-04-01T22:57:19.014Z,8.2
2023-04-01T23:00:22.895Z,8.7
2023-04-01T23:03:16.312Z,10.1
2023-04-01T23:06:07.586Z,10
2023-04-01T23:09:03.193Z,8.9
2023-04-01T23:11:57.663Z,8
2023-04-01T23:14:50.214Z,8.3
2023-04-01T23:17:41.283Z,9.8
2023-04-01T23:20:42.204Z,9.9
2023-04-01T23:23:49.250Z,8.9
2023-04-01T23:26:45.252Z,8.1
2023-04-01T23:29:38.746Z,8.5
2023-04-01T23:32:28.399Z,10
2023-04-01T23:35:16.669Z,9.9
2023-04-01T23:38:04.356Z,9
2023-04-01T23:40:53.109Z,8.1
2023-04-01T23:43:42.173Z,7.7
2023-04-01T23:46:31.536Z,8.8
2023-04-01T23:49:21.306Z,10.2
2023-04-01T23:52:14.714Z,10.1
2023-04-01T23:55:08.681Z,9
2023-04-01T23:58:03.615Z,8
